Terminal Aerodrome Forecast
Issued by NWS Cleveland, OH

Home | Current Version | Previous Version | Graphics & Text | Print | Product List | Glossary Off
Versions: 1 2 3 4 5 6 7 8 9 10 11 12 13 14 15 16 17 18 19 20 21

000
FTUS41 KCLE 240100 AAA
TAFERI
TAF AMD
KERI 240118Z 2401/2424 01010KT P6SM SCT025 OVC035
      TEMPO 2401/2404 BKN025
     FM240900 01007KT P6SM SCT040
     FM242100 32004KT P6SM SKC=

USA.gov is the U.S. government's official web portal to all federal, state and local government web resources and services.